Time;durP1;ratioP1;P1;durP2;ratioP2;P2;SDS_P1;SDS_P2;PMS_P1;PMS_P2;Temp;Humidity;BMP_temperature;BMP_pressure;BME280_temperature;BME280_humidity;BME280_pressure;Samples;Min_cycle;Max_cycle;Signal;HPM_P1;HPM_P2
2023/12/13 00:07:30;;;;;;;8.50;5.80;;;;;;;3.87;85.10;98244.17;102655;1293;600283;-22
2023/12/13 00:09:58;;;;;;;8.30;4.80;;;;;;;3.66;85.61;98248.98;104880;1263;61065;-22
2023/12/13 00:12:26;;;;;;;8.40;5.30;;;;;;;4.08;85.08;98244.46;105211;1260;61063;-22
2023/12/13 00:14:55;;;;;;;7.50;5.70;;;;;;;4.43;83.09;98245.02;105187;1266;72182;-22
2023/12/13 00:17:23;;;;;;;10.90;6.10;;;;;;;4.26;83.12;98239.86;105094;1260;73086;-23
2023/12/13 00:27:34;;;;;;;9.00;5.60;;;;;;;3.54;85.70;98252.48;102606;1292;600193;-22
2023/12/13 00:36:41;;;;;;;9.80;6.30;;;;;;;4.33;82.56;98258.42;102721;1295;600133;-22
2023/12/13 00:39:08;;;;;;;12.10;7.50;;;;;;;3.96;83.36;98259.73;105037;1265;61141;-22
2023/12/13 00:41:36;;;;;;;9.60;7.30;;;;;;;3.66;84.54;98263.38;104865;1270;61116;-22
2023/12/13 00:44:04;;;;;;;10.40;6.90;;;;;;;3.51;85.04;98259.73;104910;1269;71019;-22
2023/12/13 00:53:37;;;;;;;12.30;7.50;;;;;;;4.35;82.47;98243.02;102676;1294;600289;-22
2023/12/13 01:03:45;;;;;;;12.20;7.10;;;;;;;3.40;86.74;98244.10;103015;1291;600207;-22
2023/12/13 01:06:13;;;;;;;13.30;7.00;;;;;;;4.16;84.14;98242.39;104782;1267;61102;-22
2023/12/13 01:08:41;;;;;;;11.00;7.30;;;;;;;4.37;82.78;98241.17;104838;1272;61101;-22
2023/12/13 01:11:09;;;;;;;12.60;7.10;;;;;;;4.16;82.59;98238.43;104819;1269;72186;-22
2023/12/13 01:13:37;;;;;;;12.90;7.60;;;;;;;3.98;83.04;98243.45;104743;1275;73495;-23
2023/12/13 01:16:06;;;;;;;12.10;8.00;;;;;;;3.74;83.61;98247.92;104770;1266;71319;-22
2023/12/13 01:18:35;;;;;;;12.00;6.40;;;;;;;3.48;84.52;98244.80;102138;1272;3601852;-22
2023/12/13 01:21:03;;;;;;;15.00;7.60;;;;;;;3.76;84.86;98245.55;104856;1266;61145;-22
2023/12/13 01:23:31;;;;;;;11.90;6.70;;;;;;;4.24;83.08;98244.13;105099;1268;72190;-22
2023/12/13 01:25:58;;;;;;;14.40;8.10;;;;;;;4.28;82.89;98247.80;104856;1266;73174;-22
2023/12/13 01:28:26;;;;;;;10.60;6.60;;;;;;;4.09;82.98;98248.02;104815;1267;72661;-23
2023/12/13 01:30:54;;;;;;;14.60;8.90;;;;;;;3.65;84.60;98245.77;104843;1266;61018;-22
2023/12/13 01:33:22;;;;;;;16.30;8.80;;;;;;;3.36;86.01;98247.30;105053;1268;61156;-22
2023/12/13 01:35:50;;;;;;;11.50;5.80;;;;;;;3.23;87.08;98247.63;104832;1266;73065;-22
2023/12/13 01:38:18;;;;;;;12.40;7.00;;;;;;;3.86;85.21;98248.51;104882;1269;74298;-22
2023/12/13 01:40:53;;;;;;;13.60;6.70;;;;;;;4.32;83.55;98240.48;104860;1266;72660;-23
2023/12/13 01:43:43;;;;;;;12.30;6.40;;;;;;;4.26;82.72;98240.34;104519;1273;62701;-24
2023/12/13 01:46:12;;;;;;;11.20;7.70;;;;;;;4.02;83.07;98241.44;104665;1268;61045;-25
2023/12/13 01:48:40;;;;;;;13.80;7.80;;;;;;;3.78;83.75;98244.42;105409;1254;73044;-25
2023/12/13 01:51:08;;;;;;;12.80;8.10;;;;;;;3.53;84.52;98240.91;105522;1262;73196;-22
2023/12/13 02:01:22;;;;;;;11.50;6.80;;;;;;;4.36;83.03;98237.48;102725;1290;600198;-22
2023/12/13 02:11:29;;;;;;;9.10;5.20;;;;;;;3.42;85.95;98237.80;102641;1292;600101;-22
2023/12/13 02:13:57;;;;;;;12.00;6.20;;;;;;;4.03;84.88;98241.54;105119;1267;61129;-23
2023/12/13 02:16:26;;;;;;;13.50;7.40;;;;;;;4.47;82.95;98244.25;104865;1267;61075;-23
2023/12/13 02:18:54;;;;;;;13.20;7.80;;;;;;;4.44;82.28;98243.74;104899;1266;72229;-24
2023/12/13 02:21:24;;;;;;;13.50;7.70;;;;;;;4.11;83.02;98239.16;104841;1267;74749;-23
2023/12/13 02:23:52;;;;;;;12.90;7.50;;;;;;;3.88;83.90;98240.68;104880;1267;71468;-23
2023/12/13 02:34:00;;;;;;;11.70;6.30;;;;;;;4.56;82.92;98231.23;102655;1293;599460;-22
2023/12/13 02:36:28;;;;;;;12.40;7.00;;;;;;;4.61;82.00;98227.64;104875;1263;61005;-22
2023/12/13 02:38:56;;;;;;;10.90;6.80;;;;;;;4.32;82.09;98231.16;104869;1264;61165;-22
2023/12/13 02:41:23;;;;;;;10.20;7.20;;;;;;;4.04;82.76;98231.34;104855;1263;71118;-23
2023/12/13 02:43:51;;;;;;;12.80;7.70;;;;;;;3.81;83.40;98230.83;104873;1270;73169;-23
2023/12/13 02:46:19;;;;;;;9.30;5.70;;;;;;;3.61;84.08;98229.92;104886;1263;71756;-22
2023/12/13 02:48:47;;;;;;;11.10;6.50;;;;;;;3.94;83.71;98232.91;102505;1263;3598813;-22
2023/12/13 02:51:15;;;;;;;9.90;6.00;;;;;;;4.34;82.54;98233.83;105220;1267;61678;-22
2023/12/13 02:53:42;;;;;;;11.20;6.80;;;;;;;4.36;81.67;98237.80;105168;1263;70960;-23
2023/12/13 02:56:10;;;;;;;9.70;6.70;;;;;;;4.15;82.12;98233.73;105184;1267;73181;-23
2023/12/13 03:06:23;;;;;;;10.60;6.00;;;;;;;4.19;82.97;98227.92;102594;1292;600310;-24
2023/12/13 03:08:50;;;;;;;11.80;6.50;;;;;;;4.32;81.60;98229.45;104833;1267;61250;-24
2023/12/13 03:11:20;;;;;;;10.80;6.30;;;;;;;4.20;81.71;98223.22;104832;1267;61091;-25
2023/12/13 03:13:48;;;;;;;10.60;6.50;;;;;;;3.99;82.05;98216.71;104831;1273;72195;-24
2023/12/13 03:16:16;;;;;;;12.70;7.30;;;;;;;3.79;82.33;98215.98;105057;1267;74289;-24
2023/12/13 03:18:43;;;;;;;10.30;7.40;;;;;;;3.55;82.57;98212.60;104779;1271;71459;-24
2023/12/13 03:28:52;;;;;;;10.80;6.60;;;;;;;4.39;80.95;98221.14;102628;1295;600178;-22
2023/12/13 03:31:20;;;;;;;11.80;7.40;;;;;;;4.17;80.82;98220.52;105054;1270;61257;-23
2023/12/13 03:41:28;;;;;;;10.40;6.30;;;;;;;3.19;85.20;98215.29;102605;1296;600256;-22
2023/12/13 03:43:56;;;;;;;11.40;6.20;;;;;;;3.74;83.60;98219.80;104830;1270;61161;-23
2023/12/13 03:46:23;;;;;;;9.80;6.60;;;;;;;3.93;82.20;98220.05;104879;1267;61153;-23
2023/12/13 03:48:51;;;;;;;10.60;6.90;;;;;;;3.89;82.13;98222.23;104773;1274;71333;-23
2023/12/13 03:58:21;;;;;;;7.30;4.60;;;;;;;3.17;84.18;98221.55;102657;1292;600155;-23
2023/12/13 04:00:50;;;;;;;11.50;6.90;;;;;;;3.60;83.93;98217.44;104841;1270;61188;-22
2023/12/13 04:03:17;;;;;;;11.20;6.80;;;;;;;4.18;81.80;98212.22;104804;1266;61160;-23
2023/12/13 04:05:45;;;;;;;9.90;6.70;;;;;;;4.22;80.43;98212.95;104820;1263;72012;-23
2023/12/13 04:15:56;;;;;;;10.00;6.80;;;;;;;3.15;82.92;98220.98;102611;1295;600082;-23
2023/12/13 04:18:24;;;;;;;10.40;6.60;;;;;;;3.27;83.78;98227.14;105522;1272;61164;-23
2023/12/13 04:20:51;;;;;;;11.70;7.50;;;;;;;3.73;82.42;98231.34;105551;1263;61122;-23
2023/12/13 04:23:19;;;;;;;12.00;7.10;;;;;;;3.78;82.05;98225.90;105356;1263;71005;-23
2023/12/13 04:25:47;;;;;;;13.40;7.40;;;;;;;3.54;82.52;98225.88;105529;1262;74269;-23
2023/12/13 04:28:15;;;;;;;12.30;7.60;;;;;;;3.30;83.41;98230.17;105569;1264;71302;-23
2023/12/13 04:38:27;;;;;;;11.70;6.80;;;;;;;3.64;82.52;98240.33;103085;1288;599486;-23
2023/12/13 04:40:55;;;;;;;9.50;5.90;;;;;;;3.45;82.66;98242.92;104823;1272;61267;-23
2023/12/13 04:43:23;;;;;;;12.30;8.00;;;;;;;3.20;83.24;98244.35;104909;1267;61156;-23
2023/12/13 04:52:55;;;;;;;6.20;4.20;;;;;;;3.72;82.11;98242.23;102688;1289;600503;-23
2023/12/13 04:55:23;;;;;;;13.60;8.70;;;;;;;3.56;82.37;98242.91;105038;1269;61253;-24
2023/12/13 04:57:51;;;;;;;5.70;4.20;;;;;;;3.39;82.75;98239.89;105053;1270;61151;-25
2023/12/13 05:00:19;;;;;;;11.90;8.20;;;;;;;3.17;83.36;98240.27;105014;1269;72204;-25
2023/12/13 05:02:46;;;;;;;15.70;9.90;;;;;;;3.00;83.54;98242.88;105035;1269;74748;-25
2023/12/13 05:05:14;;;;;;;10.00;5.90;;;;;;;2.86;84.16;98235.86;104819;1270;71117;-24
2023/12/13 05:07:42;;;;;;;9.80;5.80;;;;;;;3.49;83.30;98237.52;102531;1264;3561489;-24
2023/12/13 05:10:10;;;;;;;8.70;5.80;;;;;;;4.04;81.24;98239.44;104892;1269;61221;-25
2023/12/13 05:20:20;;;;;;;12.40;7.10;;;;;;;3.38;81.65;98235.17;102716;1295;599987;-24
2023/12/13 05:22:48;;;;;;;13.10;8.00;;;;;;;3.08;82.38;98236.37;105054;1267;61112;-24
2023/12/13 05:25:16;;;;;;;10.10;5.80;;;;;;;2.91;83.26;98237.77;104870;1265;61196;-24
2023/12/13 05:27:44;;;;;;;9.80;6.70;;;;;;;3.46;82.53;98244.04;105060;1269;72177;-25
2023/12/13 05:30:12;;;;;;;11.40;7.00;;;;;;;3.84;81.04;98246.05;105129;1267;73038;-24
2023/12/13 05:32:40;;;;;;;14.00;8.00;;;;;;;3.78;80.54;98244.80;104824;1267;72671;-24
2023/12/13 05:35:08;;;;;;;13.10;7.80;;;;;;;3.53;81.06;98248.77;102511;1266;3578504;-24
2023/12/13 05:37:36;;;;;;;11.60;7.20;;;;;;;3.24;82.02;98246.69;104896;1264;61240;-24
2023/12/13 05:40:05;;;;;;;12.00;7.60;;;;;;;2.95;82.93;98249.87;104867;1269;72311;-24
2023/12/13 05:42:33;;;;;;;8.30;4.80;;;;;;;3.07;83.40;98245.54;104907;1263;73285;-24
2023/12/13 05:52:42;;;;;;;12.50;7.40;;;;;;;3.36;82.17;98258.65;102576;1295;600112;-23
2023/12/13 05:55:10;;;;;;;10.40;6.30;;;;;;;3.06;82.85;98263.91;104897;1267;61241;-23
2023/12/13 05:57:38;;;;;;;11.00;6.10;;;;;;;2.83;84.18;98265.36;104841;1267;61142;-25
2023/12/13 06:00:07;;;;;;;12.10;7.70;;;;;;;3.16;84.08;98273.80;104761;1272;72208;-25
2023/12/13 06:02:38;;;;;;;14.50;8.60;;;;;;;3.46;82.88;98276.20;104701;1266;74861;-24
2023/12/13 06:05:24;;;;;;;14.80;9.10;;;;;;;3.43;82.55;98279.46;102135;1272;3702445;-24
2023/12/13 06:07:52;;;;;;;16.00;7.40;;;;;;;3.29;82.80;98279.98;105109;1268;61163;-24
2023/12/13 06:10:20;;;;;;;13.00;6.60;;;;;;;3.15;83.00;98275.72;104953;1270;61592;-24
2023/12/13 06:12:52;;;;;;;8.80;5.50;;;;;;;2.96;83.38;98277.94;105077;1269;72241;-25
2023/12/13 06:15:21;;;;;;;12.30;6.90;;;;;;;3.25;83.39;98279.23;105080;1269;73304;-24
2023/12/13 06:17:49;;;;;;;9.00;6.20;;;;;;;3.78;81.33;98283.55;105072;1269;72680;-25
2023/12/13 06:26:49;;;;;;;11.10;6.60;;;;;;;3.32;82.09;98269.55;102770;1290;599425;-23
2023/12/13 06:29:17;;;;;;;12.70;6.90;;;;;;;3.14;82.46;98269.77;105069;1269;61252;-23
2023/12/13 06:31:45;;;;;;;8.30;5.30;;;;;;;3.03;82.74;98266.69;108712;1265;58925;-24
2023/12/13 06:34:13;;;;;;;9.70;5.80;;;;;;;3.50;82.39;98268.00;108698;1266;72273;-25
2023/12/13 06:36:40;;;;;;;12.20;7.40;;;;;;;4.11;80.61;98269.20;108680;1266;73203;-25
2023/12/13 06:39:11;;;;;;;11.50;6.50;;;;;;;4.25;79.73;98270.48;108677;1265;72671;-25
2023/12/13 06:41:41;;;;;;;15.40;8.00;;;;;;;4.08;79.45;98270.77;106108;1263;60343;-25
2023/12/13 06:44:09;;;;;;;14.10;8.30;;;;;;;3.83;79.91;98270.17;108784;1263;72235;-24
2023/12/13 06:46:36;;;;;;;12.80;8.10;;;;;;;3.62;80.63;98269.33;108738;1266;73096;-24
2023/12/13 06:49:04;;;;;;;13.90;9.00;;;;;;;3.48;81.26;98266.13;108707;1263;71447;-25
2023/12/13 06:51:32;;;;;;;16.00;9.60;;;;;;;3.35;81.51;98266.23;108774;1263;59221;-25
2023/12/13 06:54:00;;;;;;;10.10;7.00;;;;;;;3.26;81.96;98272.48;108729;1263;60033;-24
2023/12/13 06:56:28;;;;;;;13.20;7.10;;;;;;;3.77;81.81;98270.04;108796;1263;73033;-25
2023/12/13 06:58:55;;;;;;;11.90;7.40;;;;;;;4.42;79.80;98268.30;108792;1263;74301;-25
2023/12/13 07:01:23;;;;;;;11.00;7.10;;;;;;;4.54;78.85;98271.31;108702;1263;72642;-25
2023/12/13 07:03:51;;;;;;;13.60;7.50;;;;;;;4.38;78.77;98264.13;108761;1263;59139;-24
2023/12/13 07:06:19;;;;;;;12.00;7.20;;;;;;;4.14;79.10;98261.97;108818;1263;61052;-25
2023/12/13 07:08:46;;;;;;;10.90;7.60;;;;;;;3.91;79.66;98256.44;108716;1263;73072;-25
2023/12/13 07:11:15;;;;;;;14.90;8.80;;;;;;;3.73;80.51;98249.05;108760;1263;74417;-25
2023/12/13 07:13:43;;;;;;;11.60;6.90;;;;;;;3.54;81.10;98248.55;108635;1263;72653;-25
2023/12/13 07:16:11;;;;;;;23.30;11.10;;;;;;;4.01;80.90;98247.53;108764;1263;58874;-25
2023/12/13 07:18:39;;;;;;;31.90;15.70;;;;;;;4.61;79.37;98244.28;108752;1263;59027;-25
2023/12/13 07:21:06;;;;;;;43.80;19.20;;;;;;;4.74;78.46;98244.61;108775;1263;73117;-25
2023/12/13 07:23:35;;;;;;;106.90;43.40;;;;;;;4.57;78.16;98248.90;108833;1263;73527;-25
2023/12/13 07:26:03;;;;;;;61.80;26.80;;;;;;;4.32;78.87;98248.71;108722;1263;71393;-25
2023/12/13 07:28:31;;;;;;;49.40;21.40;;;;;;;4.03;79.48;98243.77;108776;1264;58855;-25
2023/12/13 07:31:04;;;;;;;35.20;18.10;;;;;;;3.81;80.15;98248.52;108795;1263;59971;-25
2023/12/13 07:33:38;;;;;;;16.70;9.40;;;;;;;3.67;80.84;98249.77;108676;1263;71830;-25
2023/12/13 07:36:07;;;;;;;16.00;8.00;;;;;;;4.22;80.90;98246.95;108754;1263;74322;-25
2023/12/13 07:38:34;;;;;;;18.40;10.00;;;;;;;4.81;78.89;98242.92;108722;1263;71497;-25
2023/12/13 07:41:02;;;;;;;18.00;9.10;;;;;;;4.94;77.97;98240.34;108666;1263;58852;-25
2023/12/13 07:43:30;;;;;;;13.90;9.30;;;;;;;4.80;77.68;98245.39;109179;1257;60021;-26
2023/12/13 07:45:57;;;;;;;18.50;10.60;;;;;;;4.58;78.17;98255.16;109160;1256;73041;-25
2023/12/13 07:48:25;;;;;;;16.10;11.10;;;;;;;4.34;78.45;98253.09;109171;1256;72596;-25
2023/12/13 07:50:58;;;;;;;19.20;11.50;;;;;;;4.09;79.05;98251.48;109157;1256;72532;-25
2023/12/13 07:53:27;;;;;;;18.20;12.00;;;;;;;3.88;79.46;98245.14;109024;1256;59287;-25
2023/12/13 07:55:54;;;;;;;15.80;9.10;;;;;;;3.77;80.47;98242.80;109159;1256;59984;-25
2023/12/13 07:58:22;;;;;;;23.30;13.20;;;;;;;4.34;80.54;98242.05;109147;1256;73048;-25
2023/12/13 08:00:50;;;;;;;16.80;10.50;;;;;;;4.97;78.15;98237.84;109216;1256;73182;-25
2023/12/13 08:03:17;;;;;;;18.30;10.60;;;;;;;5.06;76.95;98243.63;109112;1257;72741;-25
2023/12/13 08:05:45;;;;;;;17.50;11.50;;;;;;;4.90;76.76;98242.11;109148;1256;59848;-25
2023/12/13 08:08:14;;;;;;;15.40;9.90;;;;;;;4.71;77.66;98238.13;109227;1256;60009;-25
2023/12/13 08:10:43;;;;;;;16.60;10.00;;;;;;;4.47;78.06;98236.50;109163;1256;71842;-25
2023/12/13 08:13:11;;;;;;;15.10;9.90;;;;;;;4.24;78.56;98236.72;109137;1257;74308;-25
2023/12/13 08:15:39;;;;;;;12.90;7.70;;;;;;;4.02;79.35;98240.08;109094;1259;71437;-25
2023/12/13 08:18:06;;;;;;;14.20;8.90;;;;;;;4.43;79.49;98237.66;109151;1257;58779;-25
2023/12/13 08:20:34;;;;;;;15.60;9.30;;;;;;;4.99;77.68;98235.67;109175;1256;60066;-25
2023/12/13 08:23:03;;;;;;;16.60;9.70;;;;;;;5.06;76.97;98231.55;109135;1257;71739;-25
2023/12/13 08:25:31;;;;;;;26.50;13.00;;;;;;;4.86;76.76;98231.73;109134;1256;73181;-25
2023/12/13 08:27:59;;;;;;;17.10;10.20;;;;;;;4.63;77.27;98230.12;109079;1257;71494;-25
2023/12/13 08:30:27;;;;;;;19.60;10.30;;;;;;;4.41;77.99;98228.48;109095;1257;59375;-25
2023/12/13 08:32:55;;;;;;;21.10;11.80;;;;;;;4.21;78.47;98223.33;109154;1256;58804;-25
2023/12/13 08:35:22;;;;;;;16.70;8.20;;;;;;;4.11;79.02;98219.08;109081;1257;73065;-25
2023/12/13 08:37:50;;;;;;;10.40;6.50;;;;;;;4.59;78.63;98217.64;109085;1257;74338;-25
2023/12/13 08:40:18;;;;;;;14.10;8.20;;;;;;;5.12;76.38;98212.71;109052;1259;72693;-25
2023/12/13 08:42:46;;;;;;;14.00;8.80;;;;;;;5.26;75.97;98213.48;109006;1260;60061;-25
2023/12/13 08:45:14;;;;;;;16.30;9.70;;;;;;;5.17;75.68;98206.82;109046;1257;60003;-25
2023/12/13 08:47:42;;;;;;;17.30;9.70;;;;;;;4.94;75.82;98196.77;109101;1258;73025;-25
2023/12/13 08:50:10;;;;;;;16.80;10.20;;;;;;;4.79;76.48;98200.47;109048;1257;74509;-25
2023/12/13 08:52:38;;;;;;;17.20;10.00;;;;;;;4.64;77.04;98194.25;109104;1257;71374;-25
2023/12/13 08:55:08;;;;;;;16.60;8.50;;;;;;;4.47;77.55;98186.13;109030;1257;59657;-25
2023/12/13 08:57:37;;;;;;;19.80;10.20;;;;;;;4.97;77.11;98178.86;108946;1257;60015;-24
2023/12/13 09:00:06;;;;;;;17.60;9.70;;;;;;;5.51;75.62;98180.13;109093;1257;73086;-24
2023/12/13 09:02:37;;;;;;;15.60;9.70;;;;;;;5.52;74.21;98169.69;108999;1258;74336;-25
2023/12/13 09:05:06;;;;;;;17.60;11.10;;;;;;;5.40;74.55;98168.89;109067;1257;72749;-25
2023/12/13 09:07:33;;;;;;;19.30;11.80;;;;;;;5.23;74.88;98173.17;108978;1258;60256;-24
2023/12/13 09:10:03;;;;;;;18.60;10.70;;;;;;;5.13;75.51;98168.04;109098;1257;60002;-24
2023/12/13 09:12:31;;;;;;;19.90;10.90;;;;;;;5.02;75.85;98163.38;109075;1257;72297;-24
2023/12/13 09:14:58;;;;;;;18.20;10.80;;;;;;;4.84;76.29;98154.35;109103;1257;74393;-25
2023/12/13 09:17:26;;;;;;;17.10;9.60;;;;;;;5.07;76.25;98160.24;109076;1257;71409;-25
2023/12/13 09:19:54;;;;;;;15.80;10.70;;;;;;;5.54;74.64;98164.73;109059;1257;60091;-25
2023/12/13 09:22:21;;;;;;;19.10;11.10;;;;;;;5.65;74.01;98160.68;109096;1259;58748;-25
2023/12/13 09:24:49;;;;;;;16.20;8.20;;;;;;;5.46;73.99;98151.06;109060;1259;72029;-25
2023/12/13 09:27:17;;;;;;;17.10;10.50;;;;;;;5.20;74.54;98146.79;108983;1259;73042;-25
2023/12/13 09:29:44;;;;;;;21.70;11.10;;;;;;;4.95;75.13;98151.63;109011;1258;72678;-25
2023/12/13 09:32:12;;;;;;;14.40;10.00;;;;;;;4.75;75.72;98150.50;108989;1260;58820;-25
2023/12/13 09:34:41;;;;;;;15.20;10.70;;;;;;;4.63;76.33;98141.39;108999;1260;59937;-25
2023/12/13 09:37:09;;;;;;;15.10;8.50;;;;;;;4.69;76.93;98142.17;109017;1260;73126;-25
2023/12/13 09:39:36;;;;;;;13.40;8.20;;;;;;;5.26;75.07;98141.65;108957;1258;72854;-25
2023/12/13 09:42:04;;;;;;;10.60;7.20;;;;;;;5.52;73.67;98138.55;108961;1259;71633;-25
2023/12/13 09:44:33;;;;;;;11.40;6.40;;;;;;;5.43;73.18;98135.05;108938;1260;60076;-25
2023/12/13 09:47:02;;;;;;;13.00;6.90;;;;;;;5.23;73.56;98133.27;108890;1260;60029;-25
2023/12/13 09:49:30;;;;;;;10.40;6.40;;;;;;;5.06;73.97;98133.81;108906;1260;73286;-25
2023/12/13 09:52:09;;;;;;;11.00;5.90;;;;;;;4.85;74.47;98134.52;108992;1258;74322;-26
2023/12/13 09:54:39;;;;;;;10.00;6.70;;;;;;;4.57;75.00;98123.23;108974;1260;72728;-26
2023/12/13 09:57:07;;;;;;;7.80;5.40;;;;;;;4.34;75.85;98119.21;108860;1260;58766;-25
2023/12/13 09:59:36;;;;;;;11.90;5.70;;;;;;;4.52;76.12;98116.88;108910;1259;60091;-25
2023/12/13 10:02:08;;;;;;;8.30;5.90;;;;;;;4.89;74.68;98123.34;108856;1260;75212;-25
2023/12/13 10:04:36;;;;;;;8.60;6.10;;;;;;;4.94;74.11;98127.65;108868;1260;74357;-25
2023/12/13 10:07:07;;;;;;;11.10;7.00;;;;;;;4.77;74.24;98127.30;108975;1260;72668;-25
2023/12/13 10:09:35;;;;;;;11.20;5.70;;;;;;;4.62;75.04;98123.93;108932;1261;58837;-25
2023/12/13 10:12:04;;;;;;;11.20;6.80;;;;;;;4.52;75.59;98120.86;109008;1260;60040;-25
2023/12/13 10:14:34;;;;;;;11.20;7.70;;;;;;;4.46;75.99;98126.04;108835;1267;70933;-25
2023/12/13 10:17:02;;;;;;;7.90;4.80;;;;;;;4.42;76.40;98127.02;108862;1260;73679;-25
2023/12/13 10:19:44;;;;;;;8.90;5.80;;;;;;;4.85;75.34;98131.02;109011;1260;71442;-25
2023/12/13 10:22:12;;;;;;;7.00;4.30;;;;;;;5.12;73.92;98129.42;108896;1260;58825;-26
2023/12/13 10:24:41;;;;;;;8.90;5.30;;;;;;;5.05;73.55;98125.50;108913;1259;58825;-25
2023/12/13 10:27:09;;;;;;;9.10;5.40;;;;;;;4.91;73.95;98119.58;108969;1259;75267;-25
2023/12/13 10:29:37;;;;;;;10.00;6.30;;;;;;;4.69;74.57;98117.93;109071;1258;75394;-25
2023/12/13 10:32:05;;;;;;;10.80;6.90;;;;;;;4.53;74.94;98111.44;109369;1257;72660;-26
2023/12/13 10:34:33;;;;;;;9.00;6.20;;;;;;;4.44;75.54;98114.34;109246;1256;59272;-25
2023/12/13 10:37:01;;;;;;;8.70;5.60;;;;;;;4.29;76.28;98111.77;109204;1256;61010;-25
2023/12/13 10:39:29;;;;;;;10.40;6.50;;;;;;;4.74;75.39;98118.61;109130;1256;73857;-25
2023/12/13 10:41:56;;;;;;;8.40;5.50;;;;;;;5.13;73.89;98117.98;109263;1255;74315;-25
2023/12/13 10:44:24;;;;;;;9.60;6.30;;;;;;;5.18;73.39;98121.09;109249;1256;74201;-26
2023/12/13 10:46:56;;;;;;;9.00;6.00;;;;;;;4.99;73.78;98125.04;109113;1255;58917;-25
2023/12/13 10:49:24;;;;;;;10.60;5.60;;;;;;;4.74;74.24;98124.81;109081;1256;58734;-26
2023/12/13 10:51:52;;;;;;;9.80;6.40;;;;;;;4.49;74.95;98121.91;109308;1256;73824;-26
2023/12/13 10:54:20;;;;;;;9.10;6.50;;;;;;;4.33;75.71;98122.05;109228;1256;74593;-25
2023/12/13 10:56:48;;;;;;;8.20;5.00;;;;;;;4.22;76.48;98114.48;109084;1257;70392;-26
2023/12/13 10:59:16;;;;;;;6.80;4.30;;;;;;;4.78;75.32;98120.34;109263;1256;60059;-26
2023/12/13 11:01:45;;;;;;;6.50;4.90;;;;;;;5.19;73.82;98120.83;109232;1256;59981;-26
2023/12/13 11:04:13;;;;;;;9.30;6.40;;;;;;;5.12;73.23;98121.88;109174;1255;74924;-26
2023/12/13 11:06:42;;;;;;;9.30;5.80;;;;;;;4.94;73.67;98128.66;109257;1256;76058;-26
2023/12/13 11:09:17;;;;;;;9.40;6.10;;;;;;;4.72;74.16;98131.11;109252;1259;70441;-26
2023/12/13 11:11:45;;;;;;;7.00;4.50;;;;;;;4.54;74.98;98127.76;109115;1257;59550;-26
2023/12/13 11:14:15;;;;;;;9.70;6.20;;;;;;;4.32;75.48;98124.30;109234;1260;59706;-26
2023/12/13 11:16:47;;;;;;;10.30;6.20;;;;;;;4.11;76.18;98121.32;109051;1256;73824;-26
2023/12/13 11:19:19;;;;;;;9.50;5.60;;;;;;;4.07;77.14;98108.48;109130;1256;74331;-26
2023/12/13 11:21:47;;;;;;;9.10;5.50;;;;;;;4.67;75.49;98101.92;109111;1257;72665;-26
2023/12/13 11:24:23;;;;;;;9.60;5.70;;;;;;;4.89;74.33;98098.60;109048;1256;60113;-27
2023/12/13 11:26:54;;;;;;;9.50;6.40;;;;;;;4.83;74.19;98103.88;109113;1255;58724;-26
2023/12/13 11:29:26;;;;;;;8.20;5.50;;;;;;;4.67;74.60;98105.70;109100;1260;73872;-26
2023/12/13 11:32:03;;;;;;;7.10;5.30;;;;;;;4.52;75.06;98107.08;109133;1256;74444;-26
2023/12/13 11:34:32;;;;;;;7.70;5.30;;;;;;;4.34;75.58;98111.42;109082;1257;72673;-26
2023/12/13 11:37:01;;;;;;;10.20;6.60;;;;;;;4.20;76.21;98108.79;109078;1256;59285;-26
2023/12/13 11:39:29;;;;;;;9.40;5.40;;;;;;;4.30;76.72;98107.05;109099;1256;58824;-26
2023/12/13 11:41:57;;;;;;;7.50;5.20;;;;;;;4.94;74.83;98109.73;109144;1257;75432;-26
2023/12/13 11:44:28;;;;;;;6.10;4.40;;;;;;;5.23;73.44;98103.33;109131;1257;73386;-26
2023/12/13 11:47:00;;;;;;;9.30;5.60;;;;;;;5.17;72.92;98101.89;109061;1257;74798;-26
2023/12/13 11:49:28;;;;;;;4.70;3.60;;;;;;;4.96;73.39;98094.34;109010;1257;60048;-26
2023/12/13 11:51:57;;;;;;;7.30;5.30;;;;;;;4.75;74.00;98093.27;109138;1257;61522;-26
2023/12/13 11:54:25;;;;;;;8.70;5.20;;;;;;;4.56;74.75;98087.74;109099;1257;73648;-26
2023/12/13 11:56:53;;;;;;;8.10;5.10;;;;;;;4.41;74.96;98089.85;109205;1255;74318;-26
2023/12/13 11:59:21;;;;;;;4.30;3.20;;;;;;;4.31;75.85;98085.35;109211;1256;71658;-26
2023/12/13 12:01:49;;;;;;;4.80;3.60;;;;;;;4.81;74.87;98091.59;109221;1257;60393;-26
2023/12/13 12:04:21;;;;;;;7.70;5.20;;;;;;;5.19;73.14;98095.05;109196;1256;59287;-26
2023/12/13 12:06:49;;;;;;;7.60;4.30;;;;;;;5.14;72.75;98089.70;109123;1256;73923;-26
2023/12/13 12:09:18;;;;;;;5.60;3.70;;;;;;;4.95;73.03;98083.55;109236;1256;75461;-26
2023/12/13 12:11:50;;;;;;;5.70;4.00;;;;;;;4.70;73.75;98089.86;109100;1257;71728;-26
2023/12/13 12:14:18;;;;;;;8.60;4.90;;;;;;;4.45;74.30;98092.77;109060;1256;59309;-26
2023/12/13 12:16:46;;;;;;;7.70;4.80;;;;;;;4.29;74.85;98091.50;109102;1257;61169;-26
2023/12/13 12:19:14;;;;;;;8.20;5.00;;;;;;;4.08;75.72;98094.20;109108;1260;75819;-26
2023/12/13 12:21:42;;;;;;;5.10;3.90;;;;;;;4.21;76.17;98092.91;109258;1256;74146;-26
2023/12/13 12:24:11;;;;;;;8.60;5.40;;;;;;;4.83;73.92;98086.64;109090;1257;71517;-26
2023/12/13 12:26:39;;;;;;;7.10;4.20;;;;;;;5.00;72.84;98084.25;109135;1257;60966;-26
2023/12/13 12:29:07;;;;;;;5.20;4.10;;;;;;;4.89;72.83;98089.66;109138;1256;58764;-26
2023/12/13 12:31:35;;;;;;;6.90;4.60;;;;;;;4.59;73.11;98086.80;109203;1257;76055;-26
2023/12/13 12:34:03;;;;;;;6.40;4.70;;;;;;;4.39;74.10;98088.22;109208;1256;76630;-26
2023/12/13 12:36:32;;;;;;;8.10;5.30;;;;;;;4.12;74.82;98083.61;109142;1257;73351;-26
2023/12/13 12:39:03;;;;;;;7.10;4.60;;;;;;;3.88;75.84;98086.33;108968;1257;61525;-27
2023/12/13 12:41:34;;;;;;;4.70;3.10;;;;;;;3.77;76.56;98080.88;109066;1257;60304;-26
2023/12/13 12:44:04;;;;;;;5.60;3.80;;;;;;;4.34;74.93;98076.70;109116;1257;73832;-26
2023/12/13 12:46:34;;;;;;;7.90;4.60;;;;;;;4.48;73.80;98079.01;109124;1257;76055;-26
2023/12/13 12:49:04;;;;;;;5.80;4.10;;;;;;;4.42;73.88;98079.30;109118;1257;71445;-26
2023/12/13 12:51:35;;;;;;;9.70;4.80;;;;;;;4.18;74.08;98074.27;109078;1256;59127;-26
2023/12/13 12:54:07;;;;;;;5.80;4.50;;;;;;;3.93;74.85;98071.52;109105;1257;61413;-26
2023/12/13 12:56:36;;;;;;;8.00;5.40;;;;;;;3.68;75.90;98072.07;109079;1257;73091;-26
2023/12/13 12:59:11;;;;;;;6.00;4.30;;;;;;;3.53;76.44;98078.73;109054;1257;76532;-26
2023/12/13 13:01:43;;;;;;;6.40;3.70;;;;;;;3.61;76.88;98078.70;109012;1257;72806;-26
2023/12/13 13:04:13;;;;;;;8.50;4.90;;;;;;;4.23;75.09;98079.55;109042;1257;61534;-26
2023/12/13 13:06:46;;;;;;;8.50;5.40;;;;;;;4.45;73.78;98080.11;109090;1257;60095;-26
2023/12/13 13:09:17;;;;;;;12.10;5.80;;;;;;;4.35;73.56;98078.75;109143;1257;73841;-26
2023/12/13 13:11:47;;;;;;;7.60;5.40;;;;;;;4.10;74.06;98078.61;109028;1257;75936;-26
2023/12/13 13:14:19;;;;;;;8.60;5.50;;;;;;;3.83;74.69;98081.16;109042;1258;74248;-26
2023/12/13 13:16:50;;;;;;;5.80;4.40;;;;;;;3.61;75.72;98079.05;109096;1257;59162;-26
2023/12/13 13:19:19;;;;;;;7.90;4.80;;;;;;;3.44;76.25;98081.02;109104;1256;60014;-26
2023/12/13 13:21:49;;;;;;;4.90;3.40;;;;;;;3.28;76.83;98076.23;109041;1256;73892;-26
2023/12/13 13:24:21;;;;;;;8.70;4.90;;;;;;;3.70;76.24;98072.73;108998;1257;74943;-27
2023/12/13 13:26:53;;;;;;;10.50;5.50;;;;;;;4.14;74.38;98069.40;109146;1257;71504;-26
2023/12/13 13:29:22;;;;;;;9.40;5.70;;;;;;;4.11;73.84;98062.88;109061;1257;58866;-26
2023/12/13 13:31:53;;;;;;;6.90;4.40;;;;;;;3.91;74.14;98066.84;109124;1257;58688;-26
2023/12/13 13:41:56;;;;;;;4.80;3.30;;;;;;;3.15;76.84;98074.20;102616;1292;600288;-26
2023/12/13 13:44:25;;;;;;;4.20;3.30;;;;;;;3.35;76.98;98075.61;104855;1270;61177;-28
2023/12/13 13:46:53;;;;;;;5.20;3.40;;;;;;;3.83;74.86;98070.82;104876;1264;61111;-27
2023/12/13 13:49:21;;;;;;;7.30;4.70;;;;;;;3.94;73.99;98072.34;105131;1264;70747;-27
2023/12/13 13:51:49;;;;;;;4.70;3.70;;;;;;;3.78;74.13;98073.23;104882;1263;75320;-27
2023/12/13 13:54:17;;;;;;;8.90;4.90;;;;;;;3.59;74.80;98073.16;104828;1267;72659;-28